createdAt,value
2023-02-24T00:00:51.236Z,62.36
2023-02-24T00:10:53.624Z,60.22
2023-02-24T00:20:57.264Z,57.92
2023-02-24T00:31:11.214Z,59.92
2023-02-24T00:41:19.435Z,57.24
2023-02-24T00:51:31.673Z,58.38
2023-02-24T01:01:34.913Z,58.52
2023-02-24T01:11:57.247Z,58.56
2023-02-24T01:22:01.295Z,60.82
2023-02-24T01:32:03.664Z,57.11
2023-02-24T01:42:07.895Z,59.63
2023-02-24T01:52:17.886Z,60.88
2023-02-24T02:02:22.721Z,64.20
2023-02-24T02:12:24.862Z,58.74
2023-02-24T02:23:01.006Z,58.85
2023-02-24T02:33:40.216Z,59.21
2023-02-24T02:43:52.793Z,58.58
2023-02-24T02:54:10.381Z,58.48
2023-02-24T03:04:22.819Z,57.97
2023-02-24T03:14:29.344Z,58.19
2023-02-24T03:24:32.140Z,57.75
2023-02-24T03:34:58.881Z,59.66
2023-02-24T03:45:06.349Z,56.81
2023-02-24T03:55:09.302Z,56.54
2023-02-24T04:05:15.348Z,57.02
2023-02-24T04:15:33.766Z,56.15
2023-02-24T04:25:36.859Z,55.85
2023-02-24T04:35:40.758Z,55.40
2023-02-24T04:45:43.133Z,54.92
2023-02-24T04:55:50.507Z,55.52
2023-02-24T05:05:57.107Z,55.64
2023-02-24T05:16:08.359Z,55.51
2023-02-24T05:26:12.854Z,55.58
2023-02-24T05:36:17.353Z,52.74
2023-02-24T05:46:20.324Z,55.84
2023-02-24T05:56:23.210Z,54.00
2023-02-24T06:06:29.183Z,54.28
2023-02-24T06:16:31.612Z,53.33
2023-02-24T06:26:36.769Z,54.40
2023-02-24T06:36:38.907Z,52.65
2023-02-24T06:46:41.307Z,53.88
2023-02-24T06:56:43.797Z,51.31
2023-02-24T07:06:52.582Z,51.49
2023-02-24T07:16:55.302Z,50.45
2023-02-24T07:27:02.745Z,51.14
2023-02-24T07:37:08.488Z,51.30
2023-02-24T07:47:10.757Z,51.71
2023-02-24T07:57:14.214Z,50.09
2023-02-24T08:07:18.099Z,53.21
2023-02-24T08:17:22.222Z,53.18
2023-02-24T08:27:25.775Z,51.87
2023-02-24T08:37:28.756Z,49.52
2023-02-24T08:47:36.274Z,51.42
2023-02-24T08:57:38.394Z,49.82
2023-02-24T09:07:42.440Z,48.09
2023-02-24T09:17:45.163Z,49.98
2023-02-24T09:27:56.266Z,50.78
2023-02-24T09:38:00.350Z,51.07
2023-02-24T09:48:10.636Z,51.66
2023-02-24T09:58:48.053Z,50.40
2023-02-24T10:09:14.030Z,50.46
2023-02-24T10:19:29.388Z,52.79
2023-02-24T10:29:43.297Z,53.34
2023-02-24T10:39:51.932Z,55.21
2023-02-24T10:49:57.758Z,56.67
2023-02-24T11:00:19.750Z,57.16
2023-02-24T11:10:32.265Z,58.69
2023-02-24T11:20:49.319Z,60.00
2023-02-24T11:31:16.930Z,60.79
2023-02-24T11:41:23.984Z,59.54
2023-02-24T11:51:31.553Z,61.34
2023-02-24T12:01:42.559Z,62.33
2023-02-24T12:12:06.197Z,63.37
2023-02-24T12:22:15.840Z,64.21
2023-02-24T12:32:23.987Z,62.40
2023-02-24T12:43:03.731Z,63.71
2023-02-24T12:53:08.915Z,65.06
2023-02-24T13:03:39.630Z,65.46
2023-02-24T13:13:50.421Z,65.08
2023-02-24T13:24:03.649Z,62.91
2023-02-24T13:34:15.448Z,66.60
2023-02-24T13:44:28.452Z,64.71
2023-02-24T13:55:07.687Z,64.79
2023-02-24T14:05:18.864Z,64.97
2023-02-24T14:15:26.084Z,65.15
2023-02-24T14:25:31.034Z,66.56
2023-02-24T14:35:36.289Z,65.64
2023-02-24T14:45:48.259Z,66.49
2023-02-24T14:55:54.814Z,64.45
2023-02-24T15:06:00.550Z,65.80
2023-02-24T15:16:22.067Z,63.72
2023-02-24T15:26:33.789Z,64.42
2023-02-24T15:36:37.144Z,65.18
2023-02-24T15:46:40.879Z,65.42
2023-02-24T15:56:44.813Z,65.99
2023-02-24T16:06:54.546Z,66.63
2023-02-24T16:16:56.891Z,68.58
2023-02-24T16:26:59.190Z,69.06
2023-02-24T16:37:01.611Z,68.87
2023-02-24T16:47:04.610Z,64.46
2023-02-24T16:57:08.794Z,65.68
2023-02-24T17:07:16.311Z,66.55
2023-02-24T17:17:18.646Z,63.61
2023-02-24T17:27:22.077Z,62.49
2023-02-24T17:37:24.209Z,63.13
2023-02-24T17:47:27.322Z,67.63
2023-02-24T17:57:34.461Z,69.81
2023-02-24T18:07:37.861Z,67.09
2023-02-24T18:17:40.114Z,68.84
2023-02-24T18:27:43.482Z,65.06
2023-02-24T18:37:46.608Z,64.21
2023-02-24T18:47:50.991Z,63.23
2023-02-24T18:57:53.049Z,65.25
2023-02-24T19:07:55.232Z,64.74
2023-02-24T19:17:57.300Z,65.53
2023-02-24T19:28:00.251Z,62.89
2023-02-24T19:38:02.619Z,64.27
2023-02-24T19:48:04.732Z,63.75
2023-02-24T19:58:06.938Z,63.79
2023-02-24T20:08:09.328Z,63.04
2023-02-24T20:18:11.811Z,62.35
2023-02-24T20:28:14.123Z,63.60
2023-02-24T20:38:17.620Z,62.62
2023-02-24T20:48:20.072Z,60.61
2023-02-24T20:58:25.763Z,62.10
2023-02-24T21:08:30.468Z,61.56
2023-02-24T21:18:32.637Z,61.09
2023-02-24T21:28:36.373Z,60.08
2023-02-24T21:38:38.735Z,62.32
2023-02-24T21:48:42.074Z,61.93
2023-02-24T21:58:53.722Z,61.34
2023-02-24T22:08:56.348Z,61.96
2023-02-24T22:18:58.767Z,63.70
2023-02-24T22:29:02.251Z,61.96
2023-02-24T22:39:06.798Z,58.89
2023-02-24T22:49:10.278Z,60.38
2023-02-24T22:59:12.695Z,61.85
2023-02-24T23:09:19.670Z,60.54
2023-02-24T23:19:22.318Z,59.69
2023-02-24T23:29:26.422Z,59.22
2023-02-24T23:39:28.917Z,61.72
2023-02-24T23:49:46.158Z,61.24
2023-02-24T23:59:49.753Z,58.28
